Aspermont, Texas
Current Conditions -  °F | °C
As of 9:15 AM on Saturday 25 Oct 2014 (Local Time) from KSWW Reporting Station
Clear Clear  
Wind Chill: 67°   Ceiling: Unl
Heat Index: 67°   Visibility: 10mi
Dew Point: 60°   Wind: 13mph
Humidity: 77%   Direction: 210°SSW
Pressure: 30.21"   Gusts: NA
Location:  33.13°N, 100.23°W
Report Text: KSWW 251415Z AUTO 21011KT 10SM CLR 20/16 A3021 RMK AO2 T01960155
Loading
Personal Weather Stations






























Interactive Weather Map
Tropical Storm Tracking
New forecast layout! Learn more

10-Day Weather Forecast

Advertisements
Track Severe Weather on mobile